createdAt,value
2023-02-27T00:00:06.272Z,95306.00
2023-02-27T00:02:32.698Z,95319.59
2023-02-27T00:04:59.968Z,95310.91
2023-02-27T00:07:28.019Z,95316.84
2023-02-27T00:09:54.443Z,95310.31
2023-02-27T00:12:20.946Z,95308.19
2023-02-27T00:14:47.385Z,95316.81
2023-02-27T00:17:14.503Z,95313.75
2023-02-27T00:19:40.972Z,95310.41
2023-02-27T00:22:07.367Z,95310.19
2023-02-27T00:24:34.294Z,95308.41
2023-02-27T00:27:00.873Z,95315.19
2023-02-27T00:29:27.318Z,95312.25
2023-02-27T00:31:53.874Z,95319.03
2023-02-27T00:34:20.990Z,95323.66
2023-02-27T00:36:47.356Z,95321.75
2023-02-27T00:39:14.962Z,95312.78
2023-02-27T00:41:41.364Z,95325.75
2023-02-27T00:44:07.811Z,95322.75
2023-02-27T00:46:34.441Z,95324.94
2023-02-27T00:49:00.973Z,95326.88
2023-02-27T00:51:28.315Z,95323.06
2023-02-27T00:53:55.423Z,95324.47
2023-02-27T00:56:21.935Z,95317.41
2023-02-27T00:58:48.457Z,95321.63
2023-02-27T01:01:14.964Z,95319.00
2023-02-27T01:03:41.525Z,95321.50
2023-02-27T01:06:08.008Z,95310.31
2023-02-27T01:08:35.090Z,95314.34
2023-02-27T01:11:05.302Z,95316.53
2023-02-27T01:13:31.991Z,95319.38
2023-02-27T01:15:58.594Z,95321.25
2023-02-27T01:18:25.169Z,95308.47
2023-02-27T01:20:52.790Z,95310.38
2023-02-27T01:23:19.313Z,95317.38
2023-02-27T01:25:47.536Z,95310.69
2023-02-27T01:28:14.432Z,95313.66
2023-02-27T01:30:43.193Z,95312.25
2023-02-27T01:33:13.620Z,95309.09
2023-02-27T01:35:40.275Z,95316.72
2023-02-27T01:38:06.827Z,95322.09
2023-02-27T01:40:35.761Z,95321.28
2023-02-27T01:43:04.774Z,95325.69
2023-02-27T01:45:33.547Z,95327.00
2023-02-27T01:48:08.785Z,95325.13
2023-02-27T01:50:37.642Z,95330.53
2023-02-27T01:53:05.743Z,95317.66
2023-02-27T01:55:37.467Z,95329.06
2023-02-27T01:58:05.948Z,95336.47
2023-02-27T02:00:32.376Z,95332.44
2023-02-27T02:03:09.432Z,95332.31
2023-02-27T02:05:35.918Z,95339.00
2023-02-27T02:08:03.253Z,95335.53
2023-02-27T02:10:30.736Z,95330.09
2023-02-27T02:12:58.132Z,95331.56
2023-02-27T02:15:31.640Z,95334.66
2023-02-27T02:18:10.495Z,95334.72
2023-02-27T02:21:15.652Z,95326.72
2023-02-27T02:24:33.708Z,95329.81
2023-02-27T02:27:12.159Z,95337.53
2023-02-27T02:30:12.001Z,95325.97
2023-02-27T02:33:12.770Z,95330.22
2023-02-27T02:36:18.802Z,95321.31
2023-02-27T02:39:07.097Z,95326.44
2023-02-27T02:41:47.583Z,95321.09
2023-02-27T02:44:23.616Z,95316.06
2023-02-27T02:47:01.808Z,95315.47
2023-02-27T02:49:34.931Z,95327.22
2023-02-27T02:52:08.402Z,95321.06
2023-02-27T02:54:41.845Z,95326.09
2023-02-27T02:57:14.753Z,95323.72
2023-02-27T02:59:48.227Z,95332.66
2023-02-27T03:02:19.663Z,95334.81
2023-02-27T03:04:51.971Z,95335.72
2023-02-27T03:07:25.707Z,95327.13
2023-02-27T03:09:56.520Z,95322.88
2023-02-27T03:12:27.072Z,95322.44
2023-02-27T03:14:59.136Z,95322.44
2023-02-27T03:17:33.668Z,95328.78
2023-02-27T03:20:06.228Z,95307.66
2023-02-27T03:22:37.859Z,95324.88
2023-02-27T03:25:07.682Z,95323.59
2023-02-27T03:27:41.123Z,95332.75
2023-02-27T03:30:12.369Z,95342.19
2023-02-27T03:32:46.046Z,95332.38
2023-02-27T03:35:13.790Z,95328.72
2023-02-27T03:37:51.403Z,95331.91
2023-02-27T03:40:26.885Z,95328.16
2023-02-27T03:43:00.600Z,95341.47
2023-02-27T03:45:56.681Z,95337.38
2023-02-27T03:48:23.419Z,95342.16
2023-02-27T03:50:49.935Z,95333.69
2023-02-27T03:53:25.463Z,95346.84
2023-02-27T03:55:54.482Z,95346.97
2023-02-27T03:58:20.999Z,95338.94
2023-02-27T04:00:47.591Z,95346.50
2023-02-27T04:03:14.412Z,95346.00
2023-02-27T04:05:41.244Z,95346.91
2023-02-27T04:08:25.476Z,95340.59
2023-02-27T04:11:09.799Z,95340.47
2023-02-27T04:13:50.949Z,95344.50
2023-02-27T04:16:31.151Z,95351.13
2023-02-27T04:19:18.054Z,95349.88
2023-02-27T04:21:56.218Z,95356.84
2023-02-27T04:24:35.818Z,95351.47
2023-02-27T04:27:12.732Z,95347.59
2023-02-27T04:29:51.272Z,95354.66
2023-02-27T04:32:21.971Z,95358.69
2023-02-27T04:34:53.048Z,95356.84
2023-02-27T04:37:25.679Z,95351.06
2023-02-27T04:39:56.473Z,95339.25
2023-02-27T04:42:27.684Z,95349.81
2023-02-27T04:44:57.780Z,95355.13
2023-02-27T04:47:27.893Z,95341.66
2023-02-27T04:49:58.867Z,95345.13
2023-02-27T04:52:31.421Z,95350.72
2023-02-27T04:55:05.216Z,95343.91
2023-02-27T04:57:37.454Z,95345.22
2023-02-27T05:00:10.890Z,95352.06
2023-02-27T05:02:40.661Z,95347.81
2023-02-27T05:05:13.248Z,95346.63
2023-02-27T05:07:44.396Z,95341.19
2023-02-27T05:10:18.222Z,95345.44
2023-02-27T05:12:51.517Z,95343.31
2023-02-27T05:15:24.002Z,95342.53
2023-02-27T05:17:59.011Z,95345.19
2023-02-27T05:20:31.500Z,95348.25
2023-02-27T05:23:04.624Z,95351.00
2023-02-27T05:25:37.728Z,95350.75
2023-02-27T05:28:10.539Z,95338.53
2023-02-27T05:30:43.722Z,95340.50
2023-02-27T05:33:15.372Z,95357.16
2023-02-27T05:35:47.433Z,95355.00
2023-02-27T05:38:19.521Z,95352.03
2023-02-27T05:40:50.003Z,95355.25
2023-02-27T05:43:22.184Z,95355.56
2023-02-27T05:45:52.884Z,95349.97
2023-02-27T05:48:25.335Z,95359.81
2023-02-27T05:50:53.798Z,95350.09
2023-02-27T05:53:24.580Z,95358.09
2023-02-27T05:55:53.255Z,95352.34
2023-02-27T05:58:26.346Z,95354.09
2023-02-27T06:00:56.856Z,95360.81
2023-02-27T06:03:23.609Z,95360.97
2023-02-27T06:05:52.565Z,95359.91
2023-02-27T06:08:19.588Z,95358.66
2023-02-27T06:10:46.127Z,95361.06
2023-02-27T06:13:12.545Z,95361.50
2023-02-27T06:15:39.605Z,95362.09
2023-02-27T06:18:06.041Z,95388.84
2023-02-27T06:20:32.430Z,95377.75
2023-02-27T06:22:58.887Z,95371.50
2023-02-27T06:25:25.237Z,95372.50
2023-02-27T06:27:51.769Z,95379.88
2023-02-27T06:30:18.632Z,95374.72
2023-02-27T06:32:46.822Z,95385.03
2023-02-27T06:35:13.428Z,95388.41
2023-02-27T06:37:39.857Z,95378.25
2023-02-27T06:40:10.761Z,95388.66
2023-02-27T06:42:38.445Z,95388.09
2023-02-27T06:45:06.114Z,95384.00
2023-02-27T06:47:33.168Z,95389.84
2023-02-27T06:50:00.522Z,95397.44
2023-02-27T06:52:27.208Z,95398.13
2023-02-27T06:54:53.693Z,95395.34
2023-02-27T06:57:20.112Z,95399.13
2023-02-27T06:59:46.512Z,95382.41
2023-02-27T07:02:14.508Z,95386.69
2023-02-27T07:04:41.227Z,95390.66
2023-02-27T07:07:33.977Z,95379.22
2023-02-27T07:09:54.940Z,95392.06
2023-02-27T07:12:21.583Z,95386.25
2023-02-27T07:14:48.109Z,95394.47
2023-02-27T07:17:14.586Z,95397.69
2023-02-27T07:19:41.046Z,95390.34
2023-02-27T07:22:08.835Z,95402.34
2023-02-27T07:24:35.820Z,95389.91
2023-02-27T07:27:02.286Z,95402.78
2023-02-27T07:29:28.717Z,95399.47
2023-02-27T07:31:55.197Z,95408.09
2023-02-27T07:34:21.644Z,95408.00
2023-02-27T07:36:48.040Z,95407.16
2023-02-27T07:39:15.480Z,95405.59
2023-02-27T07:41:41.974Z,95423.13
2023-02-27T07:44:16.035Z,95415.78
2023-02-27T07:46:43.928Z,95418.50
2023-02-27T07:49:10.531Z,95412.41
2023-02-27T07:51:36.927Z,95409.88
2023-02-27T07:54:03.423Z,95411.44
2023-02-27T07:56:30.989Z,95425.59
2023-02-27T07:58:57.583Z,95425.88
2023-02-27T08:01:24.004Z,95426.94
2023-02-27T08:03:50.402Z,95423.97
2023-02-27T08:06:16.903Z,95432.53
2023-02-27T08:08:43.474Z,95428.50
2023-02-27T08:11:09.966Z,95417.56
2023-02-27T08:16:23.425Z,95425.25
2023-02-27T08:18:49.929Z,95428.06
2023-02-27T08:21:16.377Z,95440.97
2023-02-27T08:23:42.860Z,95439.66
2023-02-27T08:26:09.380Z,95435.47
2023-02-27T08:28:35.789Z,95431.03
2023-02-27T08:31:03.043Z,95442.44
2023-02-27T08:33:29.463Z,95442.72
2023-02-27T08:35:56.321Z,95443.03
2023-02-27T08:38:23.926Z,95435.91
2023-02-27T08:40:52.734Z,95450.19
2023-02-27T08:43:19.425Z,95436.75
2023-02-27T08:45:46.188Z,95448.31
2023-02-27T08:48:15.044Z,95457.56
2023-02-27T08:50:41.976Z,95455.28
2023-02-27T08:53:08.700Z,95449.97
2023-02-27T08:55:35.110Z,95450.41
2023-02-27T08:58:01.521Z,95463.91
2023-02-27T09:00:53.119Z,95471.06
2023-02-27T09:03:20.704Z,95470.00
2023-02-27T09:05:48.851Z,95459.31
2023-02-27T09:08:15.718Z,95470.09
2023-02-27T09:10:42.356Z,95470.50
2023-02-27T09:13:09.362Z,95469.69
2023-02-27T09:15:37.159Z,95456.25
2023-02-27T09:18:06.162Z,95459.91
2023-02-27T09:20:35.014Z,95460.47
2023-02-27T09:23:02.556Z,95460.03
2023-02-27T09:25:29.465Z,95475.97
2023-02-27T09:27:56.120Z,95465.22
2023-02-27T09:30:23.117Z,95472.78
2023-02-27T09:32:50.062Z,95469.13
2023-02-27T09:35:19.491Z,95470.00
2023-02-27T09:37:47.554Z,95474.19
2023-02-27T09:40:20.461Z,95472.81
2023-02-27T09:42:48.033Z,95470.81
2023-02-27T09:45:22.646Z,95484.69
2023-02-27T09:47:55.033Z,95491.44
2023-02-27T09:50:34.025Z,95492.91
2023-02-27T09:53:01.374Z,95499.69
2023-02-27T09:55:35.847Z,95499.63
2023-02-27T09:58:07.302Z,95488.06
2023-02-27T10:00:46.659Z,95498.84
2023-02-27T10:03:37.637Z,95508.75
2023-02-27T10:06:21.646Z,95513.94
2023-02-27T10:09:01.643Z,95515.81
2023-02-27T10:11:43.612Z,95514.75
2023-02-27T10:14:24.022Z,95514.59
2023-02-27T10:16:52.156Z,95520.31
2023-02-27T10:19:25.977Z,95525.66
2023-02-27T10:21:55.163Z,95517.41
2023-02-27T10:24:28.682Z,95540.94
2023-02-27T10:26:57.835Z,95545.03
2023-02-27T10:29:28.447Z,95532.06
2023-02-27T10:32:00.927Z,95529.25
2023-02-27T10:34:29.238Z,95532.31
2023-02-27T10:36:56.995Z,95534.84
2023-02-27T10:39:25.181Z,95513.88
2023-02-27T10:41:52.075Z,95541.50
2023-02-27T10:44:18.537Z,95535.34
2023-02-27T10:46:45.651Z,95529.84
2023-02-27T10:49:17.522Z,95546.56
2023-02-27T10:51:46.326Z,95542.69
2023-02-27T10:54:21.319Z,95540.16
2023-02-27T10:56:50.058Z,95533.53
2023-02-27T10:59:19.808Z,95529.59
2023-02-27T11:01:49.877Z,95544.50
2023-02-27T11:04:25.175Z,95540.56
2023-02-27T11:06:53.233Z,95546.81
2023-02-27T11:09:21.759Z,95538.31
2023-02-27T11:11:50.340Z,95542.81
2023-02-27T11:14:29.376Z,95526.56
2023-02-27T11:16:58.010Z,95539.34
2023-02-27T11:19:29.700Z,95539.59
2023-02-27T11:22:04.684Z,95529.25
2023-02-27T11:24:31.500Z,95531.75
2023-02-27T11:27:02.884Z,95518.81
2023-02-27T11:29:29.632Z,95536.13
2023-02-27T11:31:58.660Z,95530.03
2023-02-27T11:34:29.226Z,95525.91
2023-02-27T11:37:00.101Z,95525.50
2023-02-27T11:39:31.135Z,95513.41
2023-02-27T11:42:06.958Z,95529.09
2023-02-27T11:44:50.645Z,95533.13
2023-02-27T11:47:23.930Z,95521.13
2023-02-27T11:50:14.852Z,95531.09
2023-02-27T11:52:47.583Z,95515.41
2023-02-27T11:55:18.783Z,95528.31
2023-02-27T11:57:49.644Z,95521.91
2023-02-27T12:00:20.670Z,95536.31
2023-02-27T12:03:22.155Z,95513.16
2023-02-27T12:05:52.905Z,95517.81
2023-02-27T12:08:32.120Z,95532.00
2023-02-27T12:11:13.783Z,95528.94
2023-02-27T12:13:46.931Z,95523.75
2023-02-27T12:16:20.630Z,95533.19
2023-02-27T12:18:53.419Z,95527.13
2023-02-27T12:21:24.093Z,95525.78
2023-02-27T12:24:00.460Z,95538.34
2023-02-27T12:26:34.097Z,95532.63
2023-02-27T12:29:09.016Z,95527.81
2023-02-27T12:31:49.504Z,95525.09
2023-02-27T12:34:27.945Z,95527.63
2023-02-27T12:37:00.373Z,95532.75
2023-02-27T12:39:28.206Z,95524.97
2023-02-27T12:42:27.124Z,95528.31
2023-02-27T12:45:18.768Z,95532.59
2023-02-27T12:47:54.585Z,95533.56
2023-02-27T12:50:23.387Z,95524.28
2023-02-27T12:53:01.913Z,95525.53
2023-02-27T12:55:33.062Z,95529.50
2023-02-27T12:58:17.774Z,95529.53
2023-02-27T13:00:48.822Z,95531.59
2023-02-27T13:03:21.599Z,95528.53
2023-02-27T13:05:57.244Z,95524.59
2023-02-27T13:08:46.770Z,95523.16
2023-02-27T13:11:25.245Z,95529.66
2023-02-27T13:13:57.938Z,95527.94
2023-02-27T13:16:40.897Z,95527.53
2023-02-27T13:19:14.795Z,95539.91
2023-02-27T13:21:48.399Z,95536.97
2023-02-27T13:24:25.704Z,95533.34
2023-02-27T13:27:00.362Z,95527.09
2023-02-27T13:29:35.033Z,95532.03
2023-02-27T13:32:15.356Z,95531.25
2023-02-27T13:34:45.850Z,95531.22
2023-02-27T13:37:12.410Z,95530.44
2023-02-27T13:39:52.789Z,95526.22
2023-02-27T13:42:53.614Z,95526.97
2023-02-27T13:45:48.560Z,95532.56
2023-02-27T13:48:45.406Z,95533.63
2023-02-27T13:51:41.083Z,95525.66
2023-02-27T13:54:18.241Z,95541.09
2023-02-27T13:56:46.632Z,95519.13
2023-02-27T13:59:18.762Z,95532.31
2023-02-27T14:01:51.330Z,95543.78
2023-02-27T14:04:20.394Z,95539.34
2023-02-27T14:06:48.125Z,95527.50
2023-02-27T14:09:19.994Z,95528.19
2023-02-27T14:11:54.165Z,95526.97
2023-02-27T14:14:45.865Z,95543.22
2023-02-27T14:17:14.233Z,95528.56
2023-02-27T14:19:59.397Z,95530.19
2023-02-27T14:23:04.434Z,95531.59
2023-02-27T14:25:34.426Z,95520.19
2023-02-27T14:28:02.077Z,95528.06
2023-02-27T14:30:35.015Z,95528.72
2023-02-27T14:33:11.072Z,95525.91
2023-02-27T14:35:38.564Z,95515.25
2023-02-27T14:38:09.864Z,95517.25
2023-02-27T14:40:42.997Z,95531.91
2023-02-27T14:43:22.919Z,95537.38
2023-02-27T14:45:49.517Z,95540.16
2023-02-27T14:48:25.572Z,95531.75
2023-02-27T14:50:53.998Z,95531.00
2023-02-27T14:53:25.854Z,95524.25
2023-02-27T14:55:56.919Z,95537.19
2023-02-27T14:58:23.799Z,95540.66
2023-02-27T15:01:02.407Z,95530.41
2023-02-27T15:03:35.466Z,95535.34
2023-02-27T15:06:11.644Z,95532.06
2023-02-27T15:08:41.516Z,95532.56
2023-02-27T15:11:13.739Z,95541.47
2023-02-27T15:13:42.132Z,95547.19
2023-02-27T15:16:20.136Z,95542.22
2023-02-27T15:18:49.785Z,95550.44
2023-02-27T15:21:18.505Z,95548.47
2023-02-27T15:23:53.628Z,95546.97
2023-02-27T15:26:20.114Z,95548.75
2023-02-27T15:28:48.787Z,95552.38
2023-02-27T15:31:20.281Z,95552.44
2023-02-27T15:33:47.904Z,95552.56
2023-02-27T15:36:20.083Z,95557.28
2023-02-27T15:38:46.507Z,95555.34
2023-02-27T15:41:13.915Z,95560.16
2023-02-27T15:43:41.007Z,95558.09
2023-02-27T15:46:07.654Z,95561.88
2023-02-27T15:48:34.184Z,95562.69
2023-02-27T15:51:03.556Z,95570.06
2023-02-27T15:53:33.183Z,95565.72
2023-02-27T15:56:05.272Z,95573.78
2023-02-27T15:58:34.460Z,95569.50
2023-02-27T16:01:04.455Z,95562.41
2023-02-27T16:03:35.318Z,95575.84
2023-02-27T16:06:02.124Z,95576.75
2023-02-27T16:08:31.207Z,95580.88
2023-02-27T16:10:57.658Z,95571.94
2023-02-27T16:13:34.230Z,95580.28
2023-02-27T16:16:02.718Z,95567.34
2023-02-27T16:18:33.799Z,95589.66
2023-02-27T16:21:10.513Z,95592.22
2023-02-27T16:23:38.248Z,95596.22
2023-02-27T16:26:16.320Z,95599.59
2023-02-27T16:28:50.297Z,95595.69
2023-02-27T16:31:23.935Z,95600.25
2023-02-27T16:33:50.778Z,95587.78
2023-02-27T16:36:19.483Z,95602.72
2023-02-27T16:38:47.359Z,95605.66
2023-02-27T16:41:15.677Z,95612.16
2023-02-27T16:43:42.883Z,95598.81
2023-02-27T16:46:09.564Z,95614.44
2023-02-27T16:48:36.600Z,95611.38
2023-02-27T16:51:03.879Z,95625.63
2023-02-27T16:53:30.281Z,95618.38
2023-02-27T16:56:02.476Z,95626.94
2023-02-27T16:58:28.958Z,95624.13
2023-02-27T17:00:55.438Z,95630.88
2023-02-27T17:03:21.873Z,95637.00
2023-02-27T17:05:49.377Z,95638.13
2023-02-27T17:08:16.335Z,95628.84
2023-02-27T17:10:42.730Z,95640.34
2023-02-27T17:13:16.561Z,95650.44
2023-02-27T17:15:43.176Z,95649.75
2023-02-27T17:18:09.580Z,95646.06
2023-02-27T17:20:35.945Z,95654.78
2023-02-27T17:23:02.408Z,95648.66
2023-02-27T17:25:29.208Z,95654.56
2023-02-27T17:27:55.567Z,95659.53
2023-02-27T17:30:22.591Z,95658.41
2023-02-27T17:32:49.023Z,95659.06
2023-02-27T17:35:15.766Z,95670.66
2023-02-27T17:37:42.198Z,95668.94
2023-02-27T17:40:11.544Z,95658.75
2023-02-27T17:42:38.754Z,95668.00
2023-02-27T17:45:06.958Z,95683.03
2023-02-27T17:47:34.668Z,95673.84
2023-02-27T17:50:01.921Z,95684.72
2023-02-27T17:52:28.675Z,95688.63
2023-02-27T17:54:55.235Z,95691.84
2023-02-27T17:57:21.839Z,95695.63
2023-02-27T17:59:48.278Z,95685.22
2023-02-27T18:02:15.099Z,95696.41
2023-02-27T18:04:42.548Z,95693.00
2023-02-27T18:07:09.039Z,95693.56
2023-02-27T18:09:35.657Z,95692.16
2023-02-27T18:12:02.212Z,95710.38
2023-02-27T18:14:28.781Z,95702.28
2023-02-27T18:16:55.294Z,95698.69
2023-02-27T18:19:23.699Z,95712.69
2023-02-27T18:21:50.837Z,95697.91
2023-02-27T18:24:28.598Z,95704.91
2023-02-27T18:26:55.548Z,95701.94
2023-02-27T18:29:22.505Z,95719.66
2023-02-27T18:31:52.807Z,95706.97
2023-02-27T18:34:19.488Z,95709.72
2023-02-27T18:36:45.956Z,95708.19
2023-02-27T18:39:13.415Z,95710.38
2023-02-27T18:41:40.024Z,95703.38
2023-02-27T18:44:07.597Z,95711.75
2023-02-27T18:46:34.502Z,95706.28
2023-02-27T18:49:04.145Z,95709.47
2023-02-27T18:51:30.734Z,95717.44
2023-02-27T18:53:59.525Z,95719.88
2023-02-27T18:56:29.598Z,95717.22
2023-02-27T18:58:57.346Z,95726.72
2023-02-27T19:01:26.608Z,95718.19
2023-02-27T19:03:55.570Z,95725.47
2023-02-27T19:06:21.985Z,95719.50
2023-02-27T19:08:48.434Z,95721.56
2023-02-27T19:11:22.602Z,95713.28
2023-02-27T19:13:49.679Z,95726.47
2023-02-27T19:16:16.419Z,95716.94
2023-02-27T19:18:42.967Z,95728.19
2023-02-27T19:21:09.390Z,95724.41
2023-02-27T19:23:35.884Z,95725.66
2023-02-27T19:26:02.602Z,95727.38
2023-02-27T19:28:29.186Z,95720.59
2023-02-27T19:30:56.763Z,95728.63
2023-02-27T19:33:23.275Z,95721.19
2023-02-27T19:35:55.756Z,95718.38
2023-02-27T19:38:41.115Z,95729.09
2023-02-27T19:41:27.897Z,95716.53
2023-02-27T19:43:59.563Z,95712.16
2023-02-27T19:46:41.781Z,95715.31
2023-02-27T19:49:08.942Z,95716.75
2023-02-27T19:51:40.329Z,95718.47
2023-02-27T19:54:07.711Z,95714.06
2023-02-27T19:56:34.646Z,95722.50
2023-02-27T19:59:01.461Z,95718.34
2023-02-27T20:01:31.810Z,95725.63
2023-02-27T20:03:59.587Z,95723.88
2023-02-27T20:06:29.404Z,95733.09
2023-02-27T20:08:58.266Z,95723.16
2023-02-27T20:11:35.486Z,95715.16
2023-02-27T20:14:05.055Z,95714.84
2023-02-27T20:16:35.244Z,95704.97
2023-02-27T20:19:02.948Z,95708.81
2023-02-27T20:21:30.286Z,95719.16
2023-02-27T20:23:57.743Z,95720.44
2023-02-27T20:26:26.435Z,95719.84
2023-02-27T20:29:04.085Z,95714.66
2023-02-27T20:31:33.568Z,95711.94
2023-02-27T20:34:00.530Z,95711.91
2023-02-27T20:36:27.523Z,95714.16
2023-02-27T20:38:54.134Z,95704.25
2023-02-27T20:41:22.433Z,95696.59
2023-02-27T20:43:49.383Z,95700.34
2023-02-27T20:46:18.526Z,95693.78
2023-02-27T20:48:46.074Z,95703.78
2023-02-27T20:51:14.735Z,95693.50
2023-02-27T20:53:43.299Z,95697.03
2023-02-27T20:56:10.434Z,95682.44
2023-02-27T20:58:37.568Z,95685.75
2023-02-27T21:01:08.921Z,95685.84
2023-02-27T21:03:38.980Z,95688.47
2023-02-27T21:06:07.627Z,95694.19
2023-02-27T21:08:35.147Z,95692.41
2023-02-27T21:11:06.383Z,95676.44
2023-02-27T21:13:32.781Z,95691.41
2023-02-27T21:16:00.095Z,95693.28
2023-02-27T21:18:26.499Z,95691.53
2023-02-27T21:20:54.028Z,95691.47
2023-02-27T21:23:21.101Z,95694.47
2023-02-27T21:25:47.797Z,95689.53
2023-02-27T21:28:14.181Z,95690.91
2023-02-27T21:30:40.582Z,95689.59
2023-02-27T21:33:07.137Z,95690.06
2023-02-27T21:35:33.583Z,95686.13
2023-02-27T21:38:01.442Z,95685.31
2023-02-27T21:40:28.524Z,95685.00
2023-02-27T21:42:54.909Z,95680.94
2023-02-27T21:45:21.276Z,95680.59
2023-02-27T21:47:48.038Z,95670.56
2023-02-27T21:50:14.483Z,95683.44
2023-02-27T21:52:41.258Z,95678.09
2023-02-27T21:55:09.390Z,95658.03
2023-02-27T21:57:38.882Z,95663.31
2023-02-27T22:00:07.475Z,95665.78
2023-02-27T22:02:35.549Z,95673.63
2023-02-27T22:05:01.993Z,95678.03
2023-02-27T22:07:28.738Z,95667.28
2023-02-27T22:09:55.217Z,95660.22
2023-02-27T22:12:21.620Z,95658.94
2023-02-27T22:14:48.688Z,95647.84
2023-02-27T22:17:15.107Z,95659.22
2023-02-27T22:19:41.564Z,95661.69
2023-02-27T22:22:07.980Z,95653.63
2023-02-27T22:24:34.720Z,95656.69
2023-02-27T22:27:01.117Z,95645.00
2023-02-27T22:29:27.507Z,95650.09
2023-02-27T22:31:54.599Z,95642.81
2023-02-27T22:34:21.049Z,95647.47
2023-02-27T22:36:51.396Z,95636.88
2023-02-27T22:39:18.694Z,95646.06
2023-02-27T22:41:45.602Z,95630.38
2023-02-27T22:44:13.771Z,95637.03
2023-02-27T22:46:42.175Z,95628.75
2023-02-27T22:49:12.820Z,95620.56
2023-02-27T22:51:39.706Z,95636.28
2023-02-27T22:54:06.977Z,95634.16
2023-02-27T22:56:35.647Z,95625.53
2023-02-27T22:59:02.339Z,95625.00
2023-02-27T23:01:31.365Z,95618.84
2023-02-27T23:03:59.894Z,95619.91
2023-02-27T23:06:30.081Z,95612.91
2023-02-27T23:08:57.130Z,95616.44
2023-02-27T23:11:23.734Z,95611.94
2023-02-27T23:13:50.548Z,95614.72
2023-02-27T23:16:17.145Z,95614.88
2023-02-27T23:18:45.562Z,95615.94
2023-02-27T23:21:12.958Z,95613.44
2023-02-27T23:23:40.030Z,95628.25
2023-02-27T23:26:06.436Z,95626.00
2023-02-27T23:28:34.428Z,95622.63
2023-02-27T23:31:01.431Z,95626.31
2023-02-27T23:33:28.790Z,95613.28
2023-02-27T23:35:56.740Z,95614.88
2023-02-27T23:38:23.837Z,95622.69
2023-02-27T23:40:51.328Z,95615.69
2023-02-27T23:43:36.015Z,95625.34
2023-02-27T23:46:06.386Z,95617.56
2023-02-27T23:48:32.978Z,95612.16
2023-02-27T23:51:01.704Z,95622.09
2023-02-27T23:53:28.113Z,95616.00
2023-02-27T23:55:55.399Z,95609.03
2023-02-27T23:58:21.890Z,95611.09
